createdAt,value
2019-02-24T00:00:02.354Z,4.10
2019-02-24T00:01:02.356Z,4.19
2019-02-24T00:02:02.366Z,4.20
2019-02-24T00:03:02.353Z,4.19
2019-02-24T00:04:02.374Z,4.30
2019-02-24T00:05:02.354Z,4.37
2019-02-24T00:06:02.353Z,4.35
2019-02-24T00:07:02.353Z,4.42
2019-02-24T00:08:01.871Z,4.37
2019-02-24T00:09:01.912Z,4.30
2019-02-24T00:10:01.856Z,4.26
2019-02-24T00:11:01.858Z,4.23
2019-02-24T00:12:01.856Z,4.35
2019-02-24T00:13:01.854Z,4.32
2019-02-24T00:14:01.884Z,4.37
2019-02-24T00:15:00.335Z,4.35
2019-02-24T00:16:01.857Z,4.38
2019-02-24T00:17:01.854Z,4.28
2019-02-24T00:18:01.852Z,4.24
2019-02-24T00:19:03.752Z,4.41
2019-02-24T00:20:01.875Z,4.26
2019-02-24T00:21:01.855Z,4.30
2019-02-24T00:22:01.853Z,4.30
2019-02-24T00:23:01.854Z,4.31
2019-02-24T00:24:01.853Z,4.30
2019-02-24T00:25:01.867Z,4.30
2019-02-24T00:26:01.878Z,4.35
2019-02-24T00:27:01.857Z,4.41
2019-02-24T00:28:07.156Z,4.37
2019-02-24T00:29:02.868Z,4.40
2019-02-24T00:30:01.854Z,4.31
2019-02-24T00:31:01.853Z,4.37
2019-02-24T00:32:01.863Z,4.30
2019-02-24T00:33:01.868Z,4.32
2019-02-24T00:34:01.854Z,4.31
2019-02-24T00:35:01.856Z,4.24
2019-02-24T00:36:01.851Z,4.23
2019-02-24T00:37:01.851Z,4.23
2019-02-24T00:38:01.882Z,4.20
2019-02-24T00:39:01.855Z,4.13
2019-02-24T00:40:01.866Z,4.13
2019-02-24T00:41:01.851Z,4.17
2019-02-24T00:42:01.911Z,4.12
2019-02-24T00:43:01.861Z,4.04
2019-02-24T00:44:01.867Z,3.94
2019-02-24T00:45:01.850Z,3.96
2019-02-24T00:46:01.853Z,3.92
2019-02-24T00:47:01.854Z,3.88
2019-02-24T00:48:01.864Z,3.86
2019-02-24T00:49:01.850Z,3.86
2019-02-24T00:49:59.930Z,3.78
2019-02-24T00:51:01.852Z,3.73
2019-02-24T00:52:01.863Z,3.66
2019-02-24T00:53:01.866Z,3.58
2019-02-24T00:54:01.869Z,3.44
2019-02-24T00:55:01.863Z,3.53
2019-02-24T00:55:59.868Z,3.34
2019-02-24T00:57:01.356Z,3.42
2019-02-24T00:58:01.366Z,3.37
2019-02-24T00:59:01.369Z,3.28
2019-02-24T01:00:01.351Z,3.22
2019-02-24T01:01:01.352Z,3.19
2019-02-24T01:02:01.362Z,3.22
2019-02-24T01:03:02.353Z,3.14
2019-02-24T01:04:01.368Z,3.16
2019-02-24T01:05:01.361Z,3.16
2019-02-24T01:06:01.349Z,3.13
2019-02-24T01:07:01.355Z,2.98
2019-02-24T01:08:01.369Z,3.05
2019-02-24T01:09:01.366Z,3.04
2019-02-24T01:10:01.358Z,3.07
2019-02-24T01:11:01.352Z,3.10
2019-02-24T01:12:01.351Z,3.07
2019-02-24T01:13:01.349Z,3.03
2019-02-24T01:14:01.372Z,3.08
2019-02-24T01:15:01.351Z,3.10
2019-02-24T01:16:01.351Z,3.08
2019-02-24T01:17:01.351Z,3.10
2019-02-24T01:18:01.348Z,3.14
2019-02-24T01:19:01.368Z,3.14
2019-02-24T01:20:01.360Z,3.16
2019-02-24T01:21:01.348Z,3.23
2019-02-24T01:22:01.353Z,3.22
2019-02-24T01:23:01.351Z,3.18
2019-02-24T01:24:01.358Z,3.11
2019-02-24T01:24:59.558Z,3.13
2019-02-24T01:26:01.376Z,3.25
2019-02-24T01:27:01.352Z,3.13
2019-02-24T01:28:01.350Z,3.11
2019-02-24T01:29:01.361Z,3.23
2019-02-24T01:30:01.348Z,3.11
2019-02-24T01:30:59.522Z,3.25
2019-02-24T01:32:01.368Z,3.28
2019-02-24T01:33:01.349Z,3.37
2019-02-24T01:34:01.362Z,3.36
2019-02-24T01:35:01.350Z,3.37
2019-02-24T01:36:01.397Z,3.32
2019-02-24T01:37:01.357Z,3.32
2019-02-24T01:38:01.362Z,3.48
2019-02-24T01:39:01.349Z,3.34
2019-02-24T01:40:01.355Z,3.36
2019-02-24T01:41:01.359Z,3.29
2019-02-24T01:42:01.357Z,3.41
2019-02-24T01:43:01.349Z,3.41
2019-02-24T01:44:00.386Z,3.36
2019-02-24T01:45:00.851Z,3.40
2019-02-24T01:46:00.863Z,3.32
2019-02-24T01:47:00.847Z,3.40
2019-02-24T01:48:00.848Z,3.25
2019-02-24T01:49:00.847Z,3.25
2019-02-24T01:50:00.859Z,3.28
2019-02-24T01:51:00.862Z,3.31
2019-02-24T01:52:00.848Z,3.25
2019-02-24T01:53:00.846Z,3.26
2019-02-24T01:54:00.858Z,3.23
2019-02-24T01:55:00.845Z,3.26
2019-02-24T01:56:00.875Z,3.28
2019-02-24T01:57:00.848Z,3.40
2019-02-24T01:58:00.847Z,3.23
2019-02-24T01:59:00.845Z,3.25
2019-02-24T01:59:59.929Z,3.23
2019-02-24T02:01:00.846Z,3.22
2019-02-24T02:02:00.203Z,3.32
2019-02-24T02:03:00.868Z,3.23
2019-02-24T02:04:00.849Z,3.25
2019-02-24T02:05:00.847Z,3.25
2019-02-24T02:05:59.129Z,3.03
2019-02-24T02:07:00.860Z,3.04
2019-02-24T02:08:00.857Z,3.08
2019-02-24T02:09:00.877Z,3.01
2019-02-24T02:10:00.856Z,2.89
2019-02-24T02:11:00.846Z,2.74
2019-02-24T02:11:59.102Z,2.68
2019-02-24T02:13:00.857Z,2.60
2019-02-24T02:14:00.846Z,2.56
2019-02-24T02:15:00.938Z,2.46
2019-02-24T02:16:00.846Z,2.42
2019-02-24T02:17:00.861Z,2.32
2019-02-24T02:18:00.844Z,2.29
2019-02-24T02:19:01.459Z,2.11
2019-02-24T02:20:00.878Z,2.20
2019-02-24T02:21:00.849Z,2.15
2019-02-24T02:22:00.910Z,2.04
2019-02-24T02:23:00.848Z,2.20
2019-02-24T02:24:01.863Z,2.18
2019-02-24T02:25:00.845Z,2.10
2019-02-24T02:26:00.846Z,2.22
2019-02-24T02:27:00.873Z,2.15
2019-02-24T02:28:00.842Z,2.07
2019-02-24T02:29:00.847Z,2.13
2019-02-24T02:30:00.850Z,2.13
2019-02-24T02:31:00.863Z,1.95
2019-02-24T02:32:00.400Z,1.92
2019-02-24T02:33:00.354Z,1.84
2019-02-24T02:34:00.366Z,1.84
2019-02-24T02:35:00.346Z,1.70
2019-02-24T02:36:00.344Z,1.67
2019-02-24T02:37:00.356Z,1.58
2019-02-24T02:38:00.354Z,1.55
2019-02-24T02:39:00.370Z,1.42
2019-02-24T02:40:00.344Z,1.30
2019-02-24T02:40:58.876Z,1.34
2019-02-24T02:42:00.363Z,1.30
2019-02-24T02:43:00.343Z,1.26
2019-02-24T02:44:00.344Z,1.13
2019-02-24T02:45:00.346Z,1.13
2019-02-24T02:46:00.360Z,1.19
2019-02-24T02:47:00.360Z,1.14
2019-02-24T02:48:00.343Z,1.13
2019-02-24T02:49:00.341Z,1.04
2019-02-24T02:49:59.661Z,1.06
2019-02-24T02:51:00.341Z,1.08
2019-02-24T02:52:00.438Z,1.10
2019-02-24T02:53:00.342Z,1.02
2019-02-24T02:54:00.343Z,1.14
2019-02-24T02:55:00.343Z,1.13
2019-02-24T02:56:00.340Z,1.05
2019-02-24T02:57:00.356Z,1.08
2019-02-24T02:58:00.365Z,1.19
2019-02-24T02:59:00.341Z,1.17
2019-02-24T03:00:00.343Z,1.13
2019-02-24T03:01:00.340Z,1.14
2019-02-24T03:02:00.354Z,1.14
2019-02-24T03:03:00.340Z,0.99
2019-02-24T03:04:00.375Z,0.96
2019-02-24T03:05:00.342Z,0.88
2019-02-24T03:06:00.342Z,0.91
2019-02-24T03:07:00.361Z,0.83
2019-02-24T03:08:00.342Z,0.83
2019-02-24T03:09:00.345Z,0.74
2019-02-24T03:10:02.718Z,0.66
2019-02-24T03:11:00.341Z,0.58
2019-02-24T03:12:00.355Z,0.62
2019-02-24T03:13:00.341Z,0.58
2019-02-24T03:14:00.341Z,0.47
2019-02-24T03:15:00.340Z,0.43
2019-02-24T03:16:00.172Z,0.37
2019-02-24T03:17:00.349Z,0.44
2019-02-24T03:18:00.341Z,0.43
2019-02-24T03:19:00.346Z,0.46
2019-02-24T03:20:00.355Z,0.46
2019-02-24T03:21:00.340Z,0.41
2019-02-24T03:21:58.389Z,0.34
2019-02-24T03:22:59.838Z,0.39
2019-02-24T03:23:59.841Z,0.37
2019-02-24T03:24:59.838Z,0.32
2019-02-24T03:25:59.857Z,0.28
2019-02-24T03:26:59.850Z,0.18
2019-02-24T03:27:59.876Z,0.19
2019-02-24T03:29:04.072Z,0.16
2019-02-24T03:29:59.838Z,0.11
2019-02-24T03:30:59.900Z,0.05
2019-02-24T03:31:59.853Z,0.08
2019-02-24T03:32:59.878Z,0.05
2019-02-24T03:33:59.853Z,0.04
2019-02-24T03:34:59.837Z,0.07
2019-02-24T03:35:59.841Z,0.08
2019-02-24T03:36:59.848Z,0.08
2019-02-24T03:37:59.839Z,0.08
2019-02-24T03:38:59.835Z,0.08
2019-02-24T03:39:59.852Z,0.04
2019-02-24T03:40:59.849Z,0.11
2019-02-24T03:41:59.846Z,0.08
2019-02-24T03:42:59.839Z,0.12
2019-02-24T03:43:59.851Z,0.08
2019-02-24T03:44:59.104Z,0.15
2019-02-24T03:45:59.859Z,0.11
2019-02-24T03:46:59.855Z,0.07
2019-02-24T03:47:59.837Z,0.10
2019-02-24T03:48:59.837Z,0.05
2019-02-24T03:49:59.834Z,0.08
2019-02-24T03:50:59.837Z,0.04
2019-02-24T03:51:59.863Z,0.03
2019-02-24T03:52:59.836Z,0.00
2019-02-24T03:53:59.834Z,-0.07
2019-02-24T03:54:59.837Z,0.03
2019-02-24T03:55:59.836Z,0.04
2019-02-24T03:56:58.014Z,-0.07
2019-02-24T03:57:59.847Z,0.00
2019-02-24T03:58:59.835Z,-0.03
2019-02-24T03:59:59.837Z,0.03
2019-02-24T04:00:59.833Z,0.04
2019-02-24T04:01:59.918Z,-0.03
2019-02-24T04:02:57.923Z,-0.02
2019-02-24T04:03:59.853Z,-0.11
2019-02-24T04:04:59.845Z,-0.10
2019-02-24T04:05:59.839Z,-0.10
2019-02-24T04:06:59.836Z,-0.14
2019-02-24T04:07:59.854Z,-0.10
2019-02-24T04:08:59.838Z,-0.18
2019-02-24T04:09:59.860Z,-0.11
2019-02-24T04:10:59.349Z,-0.17
2019-02-24T04:11:59.349Z,-0.18
2019-02-24T04:12:59.333Z,-0.18
2019-02-24T04:13:59.348Z,-0.21
2019-02-24T04:14:59.349Z,-0.29
2019-02-24T04:15:59.356Z,-0.23
2019-02-24T04:16:59.347Z,-0.35
2019-02-24T04:17:59.335Z,-0.23
2019-02-24T04:18:59.334Z,-0.31
2019-02-24T04:19:59.332Z,-0.38
2019-02-24T04:20:59.332Z,-0.32
2019-02-24T04:21:59.357Z,-0.32
2019-02-24T04:22:59.341Z,-0.35
2019-02-24T04:23:59.345Z,-0.36
2019-02-24T04:24:59.340Z,-0.46
2019-02-24T04:25:59.332Z,-0.49
2019-02-24T04:26:59.348Z,-0.36
2019-02-24T04:27:59.346Z,-0.34
2019-02-24T04:28:59.332Z,-0.46
2019-02-24T04:29:59.333Z,-0.31
2019-02-24T04:30:59.332Z,-0.47
2019-02-24T04:31:59.331Z,-0.39
2019-02-24T04:32:59.345Z,-0.41
2019-02-24T04:33:59.364Z,-0.41
2019-02-24T04:34:59.334Z,-0.41
2019-02-24T04:35:59.333Z,-0.46
2019-02-24T04:36:59.331Z,-0.52
2019-02-24T04:37:57.585Z,-0.43
2019-02-24T04:38:59.334Z,-0.50
2019-02-24T04:39:59.345Z,-0.50
2019-02-24T04:40:59.339Z,-0.56
2019-02-24T04:41:59.330Z,-0.59
2019-02-24T04:42:59.343Z,-0.59
2019-02-24T04:43:59.329Z,-0.43
2019-02-24T04:44:59.334Z,-0.49
2019-02-24T04:45:59.363Z,-0.49
2019-02-24T04:46:59.330Z,-0.56
2019-02-24T04:47:59.346Z,-0.59
2019-02-24T04:48:59.331Z,-0.64
2019-02-24T04:49:59.331Z,-0.68
2019-02-24T04:50:59.332Z,-0.65
2019-02-24T04:51:59.344Z,-0.56
2019-02-24T04:52:59.341Z,-0.62
2019-02-24T04:53:59.327Z,-0.68
2019-02-24T04:54:59.329Z,-0.62
2019-02-24T04:55:59.328Z,-0.56
2019-02-24T04:56:59.369Z,-0.61
2019-02-24T04:57:59.386Z,-0.64
2019-02-24T04:58:59.335Z,-0.57
2019-02-24T04:59:58.839Z,-0.59
2019-02-24T05:00:58.839Z,-0.41
2019-02-24T05:01:58.839Z,-0.26
2019-02-24T05:02:58.855Z,-0.15
2019-02-24T05:03:58.837Z,0.10
2019-02-24T05:04:58.830Z,0.22
2019-02-24T05:05:58.839Z,0.31
2019-02-24T05:06:58.837Z,0.25
2019-02-24T05:07:58.845Z,0.28
2019-02-24T05:08:58.842Z,0.22
2019-02-24T05:09:58.844Z,0.31
2019-02-24T05:10:58.828Z,0.26
2019-02-24T05:11:58.825Z,0.25
2019-02-24T05:12:57.238Z,0.19
2019-02-24T05:13:58.828Z,0.15
2019-02-24T05:14:58.825Z,0.10
2019-02-24T05:15:58.851Z,0.11
2019-02-24T05:16:58.837Z,0.08
2019-02-24T05:17:58.828Z,0.05
2019-02-24T05:18:57.161Z,0.07
2019-02-24T05:19:58.826Z,0.04
2019-02-24T05:20:58.826Z,-0.06
2019-02-24T05:21:58.867Z,-0.10
2019-02-24T05:22:58.823Z,-0.11
2019-02-24T05:23:58.845Z,-0.07
2019-02-24T05:24:58.836Z,-0.17
2019-02-24T05:25:58.828Z,-0.13
2019-02-24T05:26:58.826Z,-0.14
2019-02-24T05:27:58.845Z,-0.17
2019-02-24T05:28:58.842Z,-0.14
2019-02-24T05:29:59.825Z,-0.20
2019-02-24T05:30:59.826Z,-0.26
2019-02-24T05:31:58.835Z,-0.29
2019-02-24T05:32:58.910Z,-0.28
2019-02-24T05:33:59.849Z,-0.26
2019-02-24T05:34:58.837Z,-0.32
2019-02-24T05:35:58.824Z,-0.44
2019-02-24T05:36:58.835Z,-0.49
2019-02-24T05:37:58.837Z,-0.43
2019-02-24T05:38:58.826Z,-0.46
2019-02-24T05:39:58.843Z,-0.44
2019-02-24T05:40:59.824Z,-0.47
2019-02-24T05:41:58.829Z,-0.49
2019-02-24T05:42:58.833Z,-0.59
2019-02-24T05:43:58.823Z,-0.47
2019-02-24T05:44:58.833Z,-0.57
2019-02-24T05:45:58.844Z,-0.56
2019-02-24T05:46:58.822Z,-0.62
2019-02-24T05:47:58.335Z,-0.56
2019-02-24T05:48:58.323Z,-0.53
2019-02-24T05:49:58.323Z,-0.61
2019-02-24T05:50:58.322Z,-0.59
2019-02-24T05:51:58.340Z,-0.59
2019-02-24T05:52:58.337Z,-0.71
2019-02-24T05:53:56.773Z,-0.70
2019-02-24T05:54:58.320Z,-0.64
2019-02-24T05:55:58.322Z,-0.70
2019-02-24T05:56:58.323Z,-0.72
2019-02-24T05:57:58.367Z,-0.78
2019-02-24T05:58:58.321Z,-0.71
2019-02-24T05:59:56.712Z,-0.75
2019-02-24T06:00:58.322Z,-0.72
2019-02-24T06:01:58.321Z,-0.90
2019-02-24T06:02:58.333Z,-0.77
2019-02-24T06:03:58.335Z,-0.77
2019-02-24T06:04:58.333Z,-0.83
2019-02-24T06:05:58.322Z,-0.78
2019-02-24T06:06:58.318Z,-0.86
2019-02-24T06:07:58.337Z,-0.86
2019-02-24T06:08:58.324Z,-0.82
2019-02-24T06:09:58.334Z,-0.71
2019-02-24T06:10:58.318Z,-0.57
2019-02-24T06:11:58.329Z,-0.54
2019-02-24T06:12:57.633Z,-0.50
2019-02-24T06:13:58.318Z,-0.34
2019-02-24T06:14:58.320Z,-0.06
2019-02-24T06:15:58.334Z,0.22
2019-02-24T06:16:58.318Z,0.44
2019-02-24T06:17:58.317Z,0.78
2019-02-24T06:18:58.338Z,1.05
2019-02-24T06:19:58.318Z,1.20
2019-02-24T06:20:58.318Z,1.31
2019-02-24T06:21:58.368Z,1.37
2019-02-24T06:22:58.339Z,1.37
2019-02-24T06:23:59.322Z,1.44
2019-02-24T06:24:58.332Z,1.55
2019-02-24T06:25:59.345Z,1.56
2019-02-24T06:26:58.379Z,1.63
2019-02-24T06:27:58.373Z,1.77
2019-02-24T06:28:56.413Z,1.67
2019-02-24T06:30:04.881Z,1.77
2019-02-24T06:31:00.332Z,1.85
2019-02-24T06:31:58.318Z,1.87
2019-02-24T06:32:58.328Z,1.99
2019-02-24T06:33:57.375Z,2.07
2019-02-24T06:34:58.407Z,2.14
2019-02-24T06:35:58.315Z,2.14
2019-02-24T06:36:58.318Z,2.26
2019-02-24T06:37:57.837Z,2.29
2019-02-24T06:38:58.842Z,2.24
2019-02-24T06:39:58.841Z,2.20
2019-02-24T06:40:59.821Z,2.17
2019-02-24T06:41:57.816Z,2.18
2019-02-24T06:42:57.814Z,2.15
2019-02-24T06:43:57.816Z,2.24
2019-02-24T06:44:57.829Z,2.22
2019-02-24T06:45:57.826Z,2.18
2019-02-24T06:46:58.308Z,2.25
2019-02-24T06:47:57.817Z,2.17
2019-02-24T06:48:57.814Z,2.20
2019-02-24T06:49:57.817Z,2.17
2019-02-24T06:50:57.869Z,2.20
2019-02-24T06:51:57.814Z,2.14
2019-02-24T06:52:57.854Z,2.20
2019-02-24T06:53:57.816Z,2.15
2019-02-24T06:54:58.829Z,2.15
2019-02-24T06:55:57.898Z,2.20
2019-02-24T06:56:57.827Z,2.13
2019-02-24T06:57:57.825Z,2.17
2019-02-24T06:58:57.826Z,2.20
2019-02-24T06:59:57.818Z,2.18
2019-02-24T07:00:57.921Z,2.15
2019-02-24T07:01:57.835Z,2.28
2019-02-24T07:02:57.832Z,2.36
2019-02-24T07:03:56.826Z,2.38
2019-02-24T07:04:57.827Z,2.38
2019-02-24T07:05:57.825Z,2.51
2019-02-24T07:06:57.813Z,2.57
2019-02-24T07:07:57.812Z,2.54
2019-02-24T07:08:57.827Z,2.72
2019-02-24T07:09:57.814Z,2.69
2019-02-24T07:10:57.827Z,2.72
2019-02-24T07:11:57.834Z,2.72
2019-02-24T07:12:58.835Z,2.74
2019-02-24T07:13:57.885Z,2.71
2019-02-24T07:14:58.830Z,2.75
2019-02-24T07:15:57.826Z,2.74
2019-02-24T07:16:57.814Z,2.87
2019-02-24T07:17:56.903Z,2.93
2019-02-24T07:18:57.811Z,3.05
2019-02-24T07:19:57.811Z,2.92
2019-02-24T07:20:57.834Z,3.14
2019-02-24T07:21:57.813Z,3.11
2019-02-24T07:22:57.827Z,3.25
2019-02-24T07:23:57.811Z,3.28
2019-02-24T07:24:57.833Z,3.36
2019-02-24T07:25:57.390Z,3.44
2019-02-24T07:26:57.337Z,3.47
2019-02-24T07:27:58.321Z,3.55
2019-02-24T07:28:57.313Z,3.58
2019-02-24T07:29:57.313Z,3.66
2019-02-24T07:30:57.324Z,3.73
2019-02-24T07:31:57.326Z,3.70
2019-02-24T07:32:57.347Z,3.68
2019-02-24T07:33:57.311Z,3.68
2019-02-24T07:34:57.320Z,3.68
2019-02-24T07:35:57.329Z,3.66
2019-02-24T07:36:57.310Z,3.56
2019-02-24T07:37:57.310Z,3.50
2019-02-24T07:38:55.705Z,3.42
2019-02-24T07:39:57.313Z,3.40
2019-02-24T07:40:57.326Z,3.23
2019-02-24T07:41:56.651Z,3.19
2019-02-24T07:42:57.312Z,3.26
2019-02-24T07:43:57.312Z,3.41
2019-02-24T07:44:57.336Z,3.50
2019-02-24T07:45:57.309Z,3.73
2019-02-24T07:46:57.325Z,3.66
2019-02-24T07:47:57.311Z,3.80
2019-02-24T07:48:57.311Z,3.98
2019-02-24T07:49:57.323Z,4.08
2019-02-24T07:50:57.347Z,4.10
2019-02-24T07:51:57.332Z,4.17
2019-02-24T07:52:57.310Z,4.17
2019-02-24T07:53:57.309Z,4.10
2019-02-24T07:54:57.309Z,4.08
2019-02-24T07:55:57.332Z,4.19
2019-02-24T07:56:57.311Z,4.23
2019-02-24T07:57:57.320Z,4.23
2019-02-24T07:58:57.308Z,4.20
2019-02-24T07:59:57.311Z,4.20
2019-02-24T08:00:57.325Z,4.23
2019-02-24T08:01:55.446Z,4.30
2019-02-24T08:02:57.308Z,4.28
2019-02-24T08:03:57.326Z,4.34
2019-02-24T08:04:57.333Z,4.48
2019-02-24T08:05:57.331Z,4.48
2019-02-24T08:06:57.308Z,4.50
2019-02-24T08:07:57.337Z,4.56
2019-02-24T08:08:57.319Z,4.67
2019-02-24T08:09:57.307Z,4.63
2019-02-24T08:10:57.324Z,4.70
2019-02-24T08:11:57.320Z,4.71
2019-02-24T08:12:57.309Z,4.82
2019-02-24T08:13:56.820Z,4.86
2019-02-24T08:14:56.814Z,4.84
2019-02-24T08:15:56.843Z,4.99
2019-02-24T08:16:56.831Z,4.97
2019-02-24T08:17:56.819Z,5.05
2019-02-24T08:18:56.825Z,5.08
2019-02-24T08:19:56.809Z,5.23
2019-02-24T08:20:56.833Z,5.25
2019-02-24T08:21:56.823Z,5.29
2019-02-24T08:22:56.809Z,5.33
2019-02-24T08:23:56.831Z,5.35
2019-02-24T08:24:56.822Z,5.47
2019-02-24T08:25:56.820Z,5.44
2019-02-24T08:26:56.810Z,5.44
2019-02-24T08:27:56.825Z,5.48
2019-02-24T08:28:56.825Z,5.46
2019-02-24T08:29:56.811Z,5.56
2019-02-24T08:30:56.816Z,5.46
2019-02-24T08:31:57.831Z,5.57
2019-02-24T08:32:56.808Z,5.47
2019-02-24T08:33:56.827Z,5.54
2019-02-24T08:34:56.830Z,5.50
2019-02-24T08:35:56.824Z,5.56
2019-02-24T08:36:56.816Z,5.61
2019-02-24T08:37:56.820Z,5.65
2019-02-24T08:38:56.812Z,5.72
2019-02-24T08:39:56.838Z,5.73
2019-02-24T08:40:56.826Z,5.72
2019-02-24T08:41:56.850Z,5.79
2019-02-24T08:42:55.020Z,5.87
2019-02-24T08:43:56.813Z,5.84
2019-02-24T08:44:56.807Z,5.97
2019-02-24T08:45:56.846Z,5.98
2019-02-24T08:46:56.820Z,5.97
2019-02-24T08:47:56.808Z,6.11
2019-02-24T08:48:57.813Z,6.09
2019-02-24T08:49:56.806Z,6.14
2019-02-24T08:50:56.824Z,6.08
2019-02-24T08:51:56.845Z,6.09
2019-02-24T08:52:57.833Z,6.17
2019-02-24T08:53:56.835Z,6.28
2019-02-24T08:54:56.838Z,6.27
2019-02-24T08:55:56.835Z,6.26
2019-02-24T08:56:56.809Z,6.30
2019-02-24T08:57:56.835Z,6.31
2019-02-24T08:58:56.812Z,6.33
2019-02-24T08:59:55.863Z,6.45
2019-02-24T09:00:56.817Z,6.48
2019-02-24T09:01:56.327Z,6.57
2019-02-24T09:02:56.307Z,6.57
2019-02-24T09:03:56.338Z,6.63
2019-02-24T09:04:56.305Z,6.59
2019-02-24T09:05:54.777Z,6.66
2019-02-24T09:06:56.305Z,6.62
2019-02-24T09:07:56.323Z,6.75
2019-02-24T09:08:56.342Z,6.72
2019-02-24T09:09:56.321Z,6.78
2019-02-24T09:10:56.304Z,6.85
2019-02-24T09:11:54.725Z,6.87
2019-02-24T09:12:56.328Z,6.95
2019-02-24T09:13:56.311Z,6.89
2019-02-24T09:14:56.317Z,7.03
2019-02-24T09:15:56.308Z,7.02
2019-02-24T09:16:56.310Z,6.99
2019-02-24T09:17:54.675Z,7.00
2019-02-24T09:18:56.323Z,7.02
2019-02-24T09:19:56.317Z,7.06
2019-02-24T09:20:56.314Z,6.97
2019-02-24T09:21:56.327Z,6.95
2019-02-24T09:22:56.337Z,7.05
2019-02-24T09:23:56.318Z,7.11
2019-02-24T09:24:56.312Z,7.21
2019-02-24T09:25:56.309Z,7.25
2019-02-24T09:26:56.309Z,7.20
2019-02-24T09:27:56.327Z,7.28
2019-02-24T09:28:56.313Z,7.18
2019-02-24T09:29:56.304Z,7.25
2019-02-24T09:31:00.906Z,7.29
2019-02-24T09:31:56.308Z,7.21
2019-02-24T09:32:56.318Z,7.36
2019-02-24T09:33:56.329Z,7.38
2019-02-24T09:34:56.304Z,7.36
2019-02-24T09:35:56.306Z,7.43
2019-02-24T09:36:56.316Z,7.45
2019-02-24T09:37:56.306Z,7.53
2019-02-24T09:38:56.340Z,7.45
2019-02-24T09:39:56.305Z,7.51
2019-02-24T09:40:56.312Z,7.57
2019-02-24T09:41:56.303Z,7.63
2019-02-24T09:42:56.306Z,7.63
2019-02-24T09:43:56.335Z,7.69
2019-02-24T09:44:56.325Z,7.76
2019-02-24T09:45:56.311Z,7.83
2019-02-24T09:46:56.327Z,7.91
2019-02-24T09:47:56.321Z,7.98
2019-02-24T09:48:56.315Z,8.03
2019-02-24T09:49:55.813Z,8.05
2019-02-24T09:50:55.804Z,8.05
2019-02-24T09:51:55.822Z,7.97
2019-02-24T09:52:55.808Z,8.08
2019-02-24T09:53:55.824Z,8.10
2019-02-24T09:54:55.804Z,8.19
2019-02-24T09:55:55.809Z,8.15
2019-02-24T09:56:55.822Z,8.23
2019-02-24T09:57:55.805Z,8.16
2019-02-24T09:58:55.817Z,8.27
2019-02-24T09:59:55.809Z,8.27
2019-02-24T10:00:55.821Z,8.36
2019-02-24T10:01:55.808Z,8.34
2019-02-24T10:02:57.502Z,8.31
2019-02-24T10:03:55.815Z,8.46
2019-02-24T10:04:55.821Z,8.46
2019-02-24T10:05:55.815Z,8.51
2019-02-24T10:06:55.824Z,8.56
2019-02-24T10:07:55.813Z,8.64
2019-02-24T10:08:55.816Z,8.76
2019-02-24T10:09:55.825Z,8.79
2019-02-24T10:10:55.814Z,8.82
2019-02-24T10:11:55.099Z,8.82
2019-02-24T10:12:55.815Z,8.79
2019-02-24T10:13:55.806Z,8.76
2019-02-24T10:14:55.817Z,8.85
2019-02-24T10:15:55.807Z,8.88
2019-02-24T10:16:55.806Z,8.84
2019-02-24T10:17:55.807Z,8.84
2019-02-24T10:18:55.803Z,8.84
2019-02-24T10:19:55.982Z,8.94
2019-02-24T10:20:55.806Z,9.00
2019-02-24T10:21:55.803Z,8.99
2019-02-24T10:22:55.171Z,9.10
2019-02-24T10:23:55.803Z,9.13
2019-02-24T10:24:56.812Z,9.26
2019-02-24T10:25:55.810Z,9.28
2019-02-24T10:26:55.810Z,9.25
2019-02-24T10:27:55.816Z,9.37
2019-02-24T10:28:53.895Z,9.37
2019-02-24T10:29:55.856Z,9.34
2019-02-24T10:31:03.360Z,9.48
2019-02-24T10:31:55.841Z,9.55
2019-02-24T10:32:55.843Z,9.59
2019-02-24T10:33:55.367Z,9.73
2019-02-24T10:34:55.341Z,9.74
2019-02-24T10:35:55.376Z,9.79
2019-02-24T10:36:55.363Z,9.80
2019-02-24T10:37:55.342Z,9.82
2019-02-24T10:38:55.346Z,9.94
2019-02-24T10:39:55.350Z,9.95
2019-02-24T10:40:55.351Z,9.94
2019-02-24T10:41:55.368Z,9.94
2019-02-24T10:42:55.338Z,9.89
2019-02-24T10:43:55.345Z,9.94
2019-02-24T10:44:55.400Z,10.04
2019-02-24T10:45:55.388Z,10.07
2019-02-24T10:46:55.355Z,10.15
2019-02-24T10:47:55.355Z,10.16
2019-02-24T10:49:03.078Z,10.19
2019-02-24T10:49:56.341Z,10.33
2019-02-24T10:50:55.349Z,10.37
2019-02-24T10:51:56.394Z,10.44
2019-02-24T10:52:53.642Z,10.41
2019-02-24T10:54:45.920Z,10.48
2019-02-24T10:55:47.793Z,10.41
2019-02-24T10:56:47.726Z,10.44
2019-02-24T10:57:45.904Z,10.49
2019-02-24T10:58:47.746Z,10.59
2019-02-24T10:59:47.718Z,10.54
2019-02-24T11:00:47.786Z,10.51
2019-02-24T11:01:47.718Z,10.48
2019-02-24T11:02:47.732Z,10.51
2019-02-24T11:03:47.726Z,10.53
2019-02-24T11:04:49.030Z,10.54
2019-02-24T11:05:47.770Z,10.60
2019-02-24T11:06:48.723Z,10.67
2019-02-24T11:07:48.736Z,10.72
2019-02-24T11:08:48.765Z,10.81
2019-02-24T11:09:47.728Z,10.94
2019-02-24T11:10:47.754Z,10.97
2019-02-24T11:11:46.761Z,10.92
2019-02-24T11:12:47.752Z,10.96
2019-02-24T11:13:47.243Z,10.93
2019-02-24T11:14:47.231Z,10.97
2019-02-24T11:15:47.326Z,10.89
2019-02-24T11:16:47.229Z,11.04
2019-02-24T11:18:37.982Z,11.12
2019-02-24T11:19:39.817Z,11.25
2019-02-24T11:20:39.778Z,11.35
2019-02-24T11:21:39.782Z,11.37
2019-02-24T11:22:39.014Z,11.44
2019-02-24T11:23:40.789Z,11.57
2019-02-24T11:24:39.770Z,11.69
2019-02-24T11:25:40.783Z,11.75
2019-02-24T11:26:39.821Z,11.80
2019-02-24T11:27:37.962Z,11.80
2019-02-24T11:28:39.799Z,11.81
2019-02-24T11:29:39.850Z,11.91
2019-02-24T11:30:39.769Z,11.95
2019-02-24T11:31:39.783Z,12.22
2019-02-24T11:32:39.781Z,12.62
2019-02-24T11:33:37.877Z,13.19
2019-02-24T11:34:39.849Z,14.18
2019-02-24T11:35:38.849Z,15.06
2019-02-24T11:36:38.785Z,15.73
2019-02-24T11:37:39.283Z,16.50
2019-02-24T11:38:40.277Z,17.12
2019-02-24T11:39:40.347Z,17.57
2019-02-24T11:40:39.283Z,18.00
2019-02-24T11:41:40.387Z,18.34
2019-02-24T11:42:39.329Z,18.95
2019-02-24T11:43:39.315Z,19.37
2019-02-24T11:44:39.283Z,19.81
2019-02-24T11:45:39.280Z,19.96
2019-02-24T11:46:39.279Z,19.91
2019-02-24T11:47:39.292Z,19.88
2019-02-24T11:48:39.286Z,19.37
2019-02-24T11:49:40.272Z,19.09
2019-02-24T11:50:39.277Z,19.04
2019-02-24T11:51:39.267Z,18.68
2019-02-24T11:52:39.354Z,18.34
2019-02-24T11:53:39.276Z,17.87
2019-02-24T11:54:39.277Z,17.65
2019-02-24T11:55:39.347Z,17.97
2019-02-24T11:56:40.289Z,17.64
2019-02-24T11:57:39.358Z,17.31
2019-02-24T11:58:40.346Z,17.09
2019-02-24T11:59:39.274Z,17.08
2019-02-24T12:00:39.330Z,17.49
2019-02-24T12:01:47.304Z,17.78
2019-02-24T12:02:41.890Z,17.90
2019-02-24T12:03:40.289Z,18.28
2019-02-24T12:04:39.354Z,18.95
2019-02-24T12:05:39.274Z,19.55
2019-02-24T12:06:39.286Z,19.56
2019-02-24T12:07:39.285Z,19.76
2019-02-24T12:08:37.459Z,19.73
2019-02-24T12:09:39.278Z,19.92
2019-02-24T12:10:39.295Z,20.24
2019-02-24T12:11:39.274Z,20.41
2019-02-24T12:12:39.272Z,20.36
2019-02-24T12:13:39.373Z,20.40
2019-02-24T12:14:39.281Z,20.69
2019-02-24T12:15:39.276Z,21.05
2019-02-24T12:16:39.276Z,21.09
2019-02-24T12:17:39.298Z,21.22
2019-02-24T12:18:39.293Z,21.35
2019-02-24T12:19:39.304Z,20.63
2019-02-24T12:20:39.300Z,19.86
2019-02-24T12:21:39.273Z,19.54
2019-02-24T12:22:39.284Z,19.66
2019-02-24T12:23:39.292Z,19.84
2019-02-24T12:24:39.272Z,20.14
2019-02-24T12:25:38.220Z,20.78
2019-02-24T12:26:38.781Z,21.29
2019-02-24T12:27:38.780Z,21.75
2019-02-24T12:28:38.785Z,21.55
2019-02-24T12:29:38.796Z,21.14
2019-02-24T12:30:38.777Z,20.59
2019-02-24T12:31:38.776Z,20.11
2019-02-24T12:32:38.774Z,20.16
2019-02-24T12:33:38.798Z,20.60
2019-02-24T12:34:38.773Z,21.18
2019-02-24T12:35:38.773Z,21.82
2019-02-24T12:36:38.793Z,22.51
2019-02-24T12:37:38.785Z,22.70
2019-02-24T12:38:38.788Z,22.20
2019-02-24T12:39:38.777Z,21.72
2019-02-24T12:40:38.794Z,21.24
2019-02-24T12:41:38.882Z,20.99
2019-02-24T12:42:38.781Z,20.58
2019-02-24T12:43:38.809Z,20.28
2019-02-24T12:44:38.796Z,20.36
2019-02-24T12:45:38.776Z,20.39
2019-02-24T12:46:38.836Z,20.25
2019-02-24T12:47:38.793Z,20.06
2019-02-24T12:48:38.794Z,20.06
2019-02-24T12:49:38.822Z,20.14
2019-02-24T12:50:38.781Z,20.16
2019-02-24T12:51:38.783Z,20.26
2019-02-24T12:52:38.776Z,20.14
2019-02-24T12:53:38.795Z,20.34
2019-02-24T12:54:36.978Z,20.47
2019-02-24T12:55:38.777Z,20.66
2019-02-24T12:56:38.776Z,20.69
2019-02-24T12:57:38.778Z,20.74
2019-02-24T12:58:38.777Z,20.72
2019-02-24T12:59:38.796Z,20.88
2019-02-24T13:00:38.779Z,21.18
2019-02-24T13:01:38.784Z,21.67
2019-02-24T13:02:38.807Z,22.30
2019-02-24T13:03:38.774Z,22.90
2019-02-24T13:04:38.811Z,23.02
2019-02-24T13:05:38.781Z,22.83
2019-02-24T13:06:38.780Z,22.68
2019-02-24T13:07:38.779Z,22.69
2019-02-24T13:08:38.784Z,22.33
2019-02-24T13:09:38.793Z,21.11
2019-02-24T13:10:38.795Z,19.82